This is the latest recevied weather packets stored in our database for station/object GW1601. If no packets are shown the sender has not sent any weather packets the latest 10 day(s).
| Time | Temp. | Humidity | Pressure | Rain* | Wind** | Luminosity | Snow |
|---|---|---|---|---|---|---|---|
| 1777998439 | 23.33° C | 58% | 984.4 hPa | 0 mm | - | - | - |
| 1777998108 | 23.33° C | 60% | 984.4 hPa | 0 mm | - | - | - |
| 1777997735 | 23.33° C | 59% | 984.7 hPa | 0 mm | - | - | - |
| 1777993411 | 21.11° C | 63% | 984 hPa | 0 mm | - | - | - |
| 1777992708 | 20.56° C | 67% | 984 hPa | 0 mm | - | - | - |
| 1777991952 | 20.56° C | 66% | 984.4 hPa | 0 mm | - | - | - |
| 1777990542 | 20.56° C | 66% | 984 hPa | 0 mm | - | - | - |
| 1777988373 | 20.56° C | 67% | 984 hPa | 0 mm | - | - | - |
| 1777987652 | 20° C | 68% | 984 hPa | 0 mm | - | - | - |
| 1777981166 | 16.67° C | 78% | 983.7 hPa | 0 mm | - | - | - |
| 1777980096 | 16.67° C | 79% | 983.7 hPa | 0 mm | - | - | - |
| 1777972872 | 15.56° C | 81% | 983 hPa | 0 mm | - | - | - |
| 1777972173 | 15.56° C | 82% | 983 hPa | 0 mm | - | - | - |
| 1777971810 | 15.56° C | 81% | 982.7 hPa | 0 mm | - | - | - |
| 1777970370 | 15.56° C | 81% | 982.7 hPa | 0 mm | - | - | - |
| 1777967849 | 16.11° C | 81% | 982.3 hPa | 0 mm | - | - | - |
| 1777967471 | 16.11° C | 80% | 982.7 hPa | 0 mm | - | - | - |
| 1777966780 | 16.11° C | 80% | 982.7 hPa | 0 mm | - | - | - |
| 1777959570 | 16.11° C | 82% | 982.7 hPa | 0 mm | - | - | - |
| 1777959189 | 16.11° C | 83% | 982.7 hPa | 0 mm | - | - | - |
| 1777958137 | 16.11° C | 84% | 983 hPa | 0 mm | - | - | - |
| 1777949863 | 13.89° C | 91% | 982.3 hPa | 0 mm | - | - | - |
| 1777946966 | 14.44° C | 87% | 982.3 hPa | 0 mm | - | - | - |
| 1777946597 | 15° C | 86% | 982.3 hPa | 0 mm | - | - | - |
| 1777945158 | 15.56° C | 83% | 982.3 hPa | 0 mm | - | - | - |
* Rain since midnight (hover to see other rain measurements)
** Current wind speed in m/s (hover to see current wind gust speed)